createdAt,value
2022-08-09T00:00:05.916Z,78.82
2022-08-09T00:01:10.456Z,79.13
2022-08-09T00:02:12.681Z,78.79
2022-08-09T00:04:03.504Z,78.62
2022-08-09T00:04:38.137Z,78.50
2022-08-09T00:06:19.739Z,78.55
2022-08-09T00:07:02.165Z,78.68
2022-08-09T00:08:04.722Z,78.64
2022-08-09T00:09:12.271Z,78.19
2022-08-09T00:10:17.962Z,78.37
2022-08-09T00:11:25.022Z,78.33
2022-08-09T00:12:29.795Z,78.14
2022-08-09T00:13:38.396Z,78.17
2022-08-09T00:14:42.662Z,78.13
2022-08-09T00:15:59.720Z,78.06
2022-08-09T00:17:04.468Z,78.36
2022-08-09T00:18:11.208Z,78.39
2022-08-09T00:19:13.552Z,77.97
2022-08-09T00:20:20.465Z,78.50
2022-08-09T00:21:22.546Z,78.41
2022-08-09T00:22:24.738Z,78.13
2022-08-09T00:23:55.083Z,78.13
2022-08-09T00:24:59.691Z,78.15
2022-08-09T00:26:06.562Z,78.17
2022-08-09T00:27:08.394Z,78.11
2022-08-09T00:28:10.320Z,78.16
2022-08-09T00:29:39.403Z,78.24
2022-08-09T00:30:34.732Z,77.92
2022-08-09T00:31:58.416Z,78.12
2022-08-09T00:32:58.435Z,77.44
2022-08-09T00:34:00.350Z,77.39
2022-08-09T00:35:04.591Z,77.50
2022-08-09T00:36:06.484Z,77.46
2022-08-09T00:37:10.370Z,77.73
2022-08-09T00:38:13.189Z,78.08
2022-08-09T00:40:09.836Z,78.40
2022-08-09T00:40:40.498Z,78.35
2022-08-09T00:44:11.235Z,78.00
2022-08-09T00:44:13.717Z,77.92
2022-08-09T00:44:39.508Z,78.04
2022-08-09T00:45:47.430Z,78.04
2022-08-09T00:47:05.469Z,78.19
2022-08-09T00:48:07.935Z,78.26
2022-08-09T00:49:17.212Z,78.12
2022-08-09T00:50:23.182Z,77.69
2022-08-09T00:51:25.397Z,78.21
2022-08-09T00:52:30.317Z,78.07
2022-08-09T00:53:32.793Z,78.31
2022-08-09T00:54:38.153Z,78.08
2022-08-09T00:56:05.404Z,78.18
2022-08-09T00:57:10.636Z,78.05
2022-08-09T00:58:14.748Z,78.06
2022-08-09T00:59:40.711Z,78.19
2022-08-09T01:00:44.093Z,78.38
2022-08-09T01:01:47.581Z,78.31
2022-08-09T01:03:03.185Z,77.82
2022-08-09T01:04:13.525Z,77.99
2022-08-09T01:05:22.642Z,78.08
2022-08-09T01:07:08.032Z,77.79
2022-08-09T01:08:26.747Z,77.99
2022-08-09T01:09:43.325Z,78.23
2022-08-09T01:11:08.565Z,78.17
2022-08-09T01:12:12.652Z,77.61
2022-08-09T01:13:31.343Z,77.48
2022-08-09T01:15:05.760Z,77.77
2022-08-09T01:16:13.026Z,77.59
2022-08-09T01:17:30.533Z,77.75
2022-08-09T01:18:37.564Z,78.15
2022-08-09T01:20:02.731Z,78.54
2022-08-09T01:21:14.275Z,78.67
2022-08-09T01:22:33.978Z,78.75
2022-08-09T01:24:02.422Z,78.71
2022-08-09T01:25:08.785Z,78.30
2022-08-09T01:26:32.854Z,78.12
2022-08-09T01:27:36.307Z,77.76
2022-08-09T01:28:40.754Z,77.76
2022-08-09T01:29:54.987Z,77.50
2022-08-09T01:31:00.471Z,77.31
2022-08-09T01:32:32.698Z,77.50
2022-08-09T01:33:28.283Z,77.37
2022-08-09T01:34:31.909Z,77.62
2022-08-09T01:35:42.712Z,77.71
2022-08-09T01:36:45.367Z,77.78
2022-08-09T01:38:08.174Z,77.67
2022-08-09T01:39:12.810Z,77.48
2022-08-09T01:40:23.197Z,77.34
2022-08-09T01:41:31.659Z,77.66
2022-08-09T01:42:33.830Z,77.65
2022-08-09T01:43:42.299Z,77.76
2022-08-09T01:44:55.159Z,78.12
2022-08-09T01:45:57.956Z,77.83
2022-08-09T01:47:01.096Z,77.89
2022-08-09T01:48:05.864Z,78.10
2022-08-09T01:49:12.669Z,77.84
2022-08-09T01:50:16.709Z,77.80
2022-08-09T01:51:22.858Z,77.48
2022-08-09T01:52:26.130Z,77.53
2022-08-09T01:53:41.657Z,77.07
2022-08-09T01:54:49.227Z,77.41
2022-08-09T01:55:54.058Z,77.48
2022-08-09T01:56:57.996Z,77.03
2022-08-09T01:58:07.048Z,76.96
2022-08-09T01:59:10.785Z,77.26
2022-08-09T02:00:34.496Z,76.85
2022-08-09T02:01:59.791Z,76.88
2022-08-09T02:03:02.006Z,76.76
2022-08-09T02:04:04.467Z,77.24
2022-08-09T02:05:15.739Z,77.03
2022-08-09T02:06:39.564Z,77.25
2022-08-09T02:08:39.794Z,77.24
2022-08-09T02:09:13.066Z,76.97
2022-08-09T02:10:29.889Z,77.10
2022-08-09T02:11:40.480Z,76.94
2022-08-09T02:12:47.367Z,76.74
2022-08-09T02:14:06.914Z,76.82
2022-08-09T02:15:15.460Z,77.07
2022-08-09T02:16:18.779Z,77.14
2022-08-09T02:18:01.630Z,77.26
2022-08-09T02:18:56.418Z,77.17
2022-08-09T02:19:58.729Z,77.56
2022-08-09T02:21:08.345Z,77.25
2022-08-09T02:22:15.232Z,77.62
2022-08-09T02:23:39.953Z,77.25
2022-08-09T02:24:44.208Z,77.41
2022-08-09T02:25:56.977Z,77.53
2022-08-09T02:27:02.275Z,77.36
2022-08-09T02:28:09.765Z,77.37
2022-08-09T02:29:25.499Z,77.40
2022-08-09T02:30:29.637Z,77.69
2022-08-09T02:31:36.309Z,77.52
2022-08-09T02:32:41.856Z,77.51
2022-08-09T02:34:06.788Z,77.66
2022-08-09T02:35:17.379Z,77.54
2022-08-09T02:36:21.967Z,77.63
2022-08-09T02:37:31.713Z,77.54
2022-08-09T02:38:50.103Z,77.65
2022-08-09T02:40:01.565Z,77.47
2022-08-09T02:41:12.891Z,77.75
2022-08-09T02:42:20.120Z,77.89
2022-08-09T02:43:29.349Z,77.82
2022-08-09T02:44:49.594Z,77.91
2022-08-09T02:45:52.672Z,77.94
2022-08-09T02:46:55.722Z,77.84
2022-08-09T02:48:01.283Z,77.68
2022-08-09T02:49:08.100Z,77.78
2022-08-09T02:50:13.563Z,77.59
2022-08-09T02:51:20.764Z,77.61
2022-08-09T02:52:24.505Z,77.83
2022-08-09T02:53:34.346Z,77.79
2022-08-09T02:54:54.171Z,78.04
2022-08-09T02:55:59.025Z,77.87
2022-08-09T02:57:14.068Z,77.94
2022-08-09T02:58:37.105Z,77.96
2022-08-09T02:59:40.317Z,77.73
2022-08-09T03:01:04.362Z,77.90
2022-08-09T03:02:12.083Z,77.61
2022-08-09T03:03:21.347Z,77.87
2022-08-09T03:04:26.334Z,77.84
2022-08-09T03:05:34.491Z,77.83
2022-08-09T03:06:37.989Z,78.04
2022-08-09T03:07:42.655Z,77.78
2022-08-09T03:08:58.062Z,77.72
2022-08-09T03:10:00.701Z,77.75
2022-08-09T03:11:04.336Z,77.99
2022-08-09T03:12:10.980Z,77.99
2022-08-09T03:13:15.396Z,77.95
2022-08-09T03:14:18.553Z,77.61
2022-08-09T03:15:22.940Z,77.43
2022-08-09T03:16:25.084Z,77.55
2022-08-09T03:17:28.201Z,77.31
2022-08-09T03:18:31.286Z,77.44
2022-08-09T03:19:52.005Z,77.56
2022-08-09T03:20:57.128Z,77.29
2022-08-09T03:21:59.478Z,77.16
2022-08-09T03:23:14.496Z,77.76
2022-08-09T03:24:31.302Z,77.81
2022-08-09T03:25:59.260Z,77.77
2022-08-09T03:27:07.314Z,77.66
2022-08-09T03:28:11.343Z,77.63
2022-08-09T03:29:23.151Z,77.90
2022-08-09T03:30:33.628Z,77.81
2022-08-09T03:31:42.600Z,78.05
2022-08-09T03:32:59.843Z,78.00
2022-08-09T03:34:03.447Z,78.35
2022-08-09T03:35:24.205Z,78.51
2022-08-09T03:36:28.075Z,78.54
2022-08-09T03:37:56.266Z,78.35
2022-08-09T03:38:51.998Z,77.88
2022-08-09T03:39:55.621Z,77.80
2022-08-09T03:40:58.545Z,77.59
2022-08-09T03:42:05.938Z,77.58
2022-08-09T03:43:09.101Z,77.74
2022-08-09T03:44:13.402Z,77.79
2022-08-09T03:45:17.569Z,77.99
2022-08-09T03:46:39.528Z,78.01
2022-08-09T03:47:44.088Z,77.91
2022-08-09T03:48:54.279Z,77.63
2022-08-09T03:49:58.047Z,77.63
2022-08-09T03:51:00.960Z,77.62
2022-08-09T03:52:04.482Z,77.68
2022-08-09T03:53:07.488Z,77.37
2022-08-09T03:54:14.431Z,77.81
2022-08-09T03:55:16.579Z,77.62
2022-08-09T03:56:19.786Z,77.28
2022-08-09T03:57:21.712Z,77.45
2022-08-09T03:58:23.879Z,77.06
2022-08-09T03:59:53.265Z,77.33
2022-08-09T04:00:49.966Z,77.43
2022-08-09T04:01:53.877Z,77.19
2022-08-09T04:02:57.381Z,76.98
2022-08-09T04:04:03.870Z,77.00
2022-08-09T04:05:27.513Z,77.21
2022-08-09T04:06:29.653Z,77.22
2022-08-09T04:07:47.355Z,77.12
2022-08-09T04:08:53.711Z,77.38
2022-08-09T04:09:55.537Z,77.52
2022-08-09T04:11:01.614Z,77.71
2022-08-09T04:12:11.836Z,77.78
2022-08-09T04:13:14.029Z,77.33
2022-08-09T04:14:53.172Z,77.52
2022-08-09T04:16:20.494Z,77.30
2022-08-09T04:17:07.601Z,77.36
2022-08-09T04:18:09.691Z,77.46
2022-08-09T04:19:30.357Z,77.51
2022-08-09T04:20:42.342Z,77.23
2022-08-09T04:21:46.579Z,77.25
2022-08-09T04:22:50.435Z,77.43
2022-08-09T04:23:53.617Z,77.88
2022-08-09T04:24:56.483Z,77.92
2022-08-09T04:25:58.263Z,78.11
2022-08-09T04:27:00.061Z,77.76
2022-08-09T04:28:03.601Z,77.79
2022-08-09T04:29:10.826Z,77.67
2022-08-09T04:30:20.854Z,77.79
2022-08-09T04:31:26.314Z,77.48
2022-08-09T04:32:39.712Z,77.64
2022-08-09T04:33:52.774Z,77.56
2022-08-09T04:34:57.446Z,77.71
2022-08-09T04:35:59.503Z,77.64
2022-08-09T04:37:01.532Z,77.50
2022-08-09T04:38:03.743Z,77.37
2022-08-09T04:39:08.763Z,77.42
2022-08-09T04:40:11.660Z,77.34
2022-08-09T04:41:23.796Z,77.36
2022-08-09T04:42:29.911Z,77.36
2022-08-09T04:43:33.627Z,77.25
2022-08-09T04:44:37.650Z,77.60
2022-08-09T04:45:53.830Z,77.61
2022-08-09T04:46:58.932Z,77.59
2022-08-09T04:48:10.302Z,77.92
2022-08-09T04:49:12.220Z,77.70
2022-08-09T04:50:16.775Z,77.78
2022-08-09T04:51:21.524Z,77.74
2022-08-09T04:52:26.492Z,77.42
2022-08-09T04:53:29.143Z,77.54
2022-08-09T04:54:33.603Z,77.40
2022-08-09T04:55:42.004Z,77.41
2022-08-09T04:56:57.740Z,77.38
2022-08-09T04:58:09.332Z,77.48
2022-08-09T04:59:15.364Z,77.70
2022-08-09T05:00:17.615Z,77.50
2022-08-09T05:01:19.797Z,77.35
2022-08-09T05:02:23.052Z,77.40
2022-08-09T05:03:40.362Z,77.44
2022-08-09T05:04:47.367Z,77.72
2022-08-09T05:05:51.948Z,77.89
2022-08-09T05:06:54.732Z,77.45
2022-08-09T05:07:58.430Z,77.23
2022-08-09T05:09:01.451Z,77.58
2022-08-09T05:10:03.818Z,77.58
2022-08-09T05:11:07.519Z,77.64
2022-08-09T05:12:11.064Z,77.48
2022-08-09T05:13:14.666Z,77.52
2022-08-09T05:14:16.644Z,77.23
2022-08-09T05:15:38.616Z,77.34
2022-08-09T05:16:58.042Z,77.45
2022-08-09T05:18:39.294Z,77.18
2022-08-09T05:19:26.119Z,77.41
2022-08-09T05:20:33.665Z,77.29
2022-08-09T05:21:46.852Z,77.12
2022-08-09T05:23:54.027Z,77.14
2022-08-09T05:24:12.592Z,77.42
2022-08-09T05:25:16.492Z,77.30
2022-08-09T05:26:37.391Z,77.22
2022-08-09T05:27:46.329Z,77.63
2022-08-09T05:28:50.026Z,77.26
2022-08-09T05:29:54.026Z,76.97
2022-08-09T05:30:56.059Z,76.96
2022-08-09T05:32:02.855Z,76.88
2022-08-09T05:33:09.419Z,76.99
2022-08-09T05:34:16.999Z,76.96
2022-08-09T05:35:22.001Z,76.98
2022-08-09T05:36:28.813Z,77.10
2022-08-09T05:37:30.777Z,77.24
2022-08-09T05:38:49.295Z,77.03
2022-08-09T05:39:51.304Z,77.25
2022-08-09T05:40:53.212Z,76.92
2022-08-09T05:41:55.080Z,77.09
2022-08-09T05:42:57.085Z,77.18
2022-08-09T05:43:59.543Z,77.31
2022-08-09T05:45:01.353Z,77.41
2022-08-09T05:46:03.646Z,77.24
2022-08-09T05:47:05.949Z,77.30
2022-08-09T05:48:07.779Z,77.04
2022-08-09T05:50:23.695Z,77.48
2022-08-09T05:50:44.036Z,77.31
2022-08-09T05:51:54.443Z,77.43
2022-08-09T05:52:56.340Z,77.54
2022-08-09T05:53:59.750Z,77.50
2022-08-09T05:55:03.060Z,77.53
2022-08-09T05:56:09.356Z,77.69
2022-08-09T05:57:19.109Z,77.78
2022-08-09T05:58:21.206Z,77.33
2022-08-09T05:59:23.181Z,77.36
2022-08-09T06:00:29.103Z,77.15
2022-08-09T06:01:33.703Z,77.37
2022-08-09T06:02:46.719Z,77.40
2022-08-09T06:03:54.499Z,77.32
2022-08-09T06:05:00.534Z,77.23
2022-08-09T06:06:05.739Z,76.90
2022-08-09T06:07:07.835Z,77.05
2022-08-09T06:08:11.470Z,76.70
2022-08-09T06:09:40.532Z,77.02
2022-08-09T06:10:40.945Z,77.14
2022-08-09T06:11:57.303Z,76.52
2022-08-09T06:13:03.188Z,76.72
2022-08-09T06:14:14.790Z,76.45
2022-08-09T06:15:17.514Z,76.72
2022-08-09T06:16:19.319Z,76.72
2022-08-09T06:17:21.129Z,76.61
2022-08-09T06:18:25.305Z,76.76
2022-08-09T06:19:27.842Z,76.18
2022-08-09T06:20:30.220Z,75.86
2022-08-09T06:21:32.215Z,76.07
2022-08-09T06:22:34.750Z,75.95
2022-08-09T06:23:58.918Z,76.02
2022-08-09T06:24:58.596Z,76.03
2022-08-09T06:26:01.423Z,76.03
2022-08-09T06:27:03.463Z,75.91
2022-08-09T06:28:05.645Z,75.85
2022-08-09T06:29:08.537Z,76.04
2022-08-09T06:30:17.025Z,75.64
2022-08-09T06:31:19.519Z,75.72
2022-08-09T06:32:59.691Z,75.66
2022-08-09T06:33:55.227Z,75.69
2022-08-09T06:34:57.053Z,75.82
2022-08-09T06:35:59.290Z,75.50
2022-08-09T06:37:02.909Z,74.95
2022-08-09T06:38:05.447Z,75.50
2022-08-09T06:39:11.904Z,75.40
2022-08-09T06:40:22.001Z,75.57
2022-08-09T06:41:40.564Z,75.49
2022-08-09T06:42:48.173Z,75.35
2022-08-09T06:43:49.988Z,75.45
2022-08-09T06:44:55.511Z,74.98
2022-08-09T06:46:05.124Z,74.84
2022-08-09T06:47:12.371Z,74.82
2022-08-09T06:48:16.683Z,74.84
2022-08-09T06:49:44.776Z,74.33
2022-08-09T06:50:49.647Z,74.67
2022-08-09T06:51:51.453Z,74.77
2022-08-09T06:52:54.735Z,74.54
2022-08-09T06:54:00.723Z,74.51
2022-08-09T06:55:06.639Z,74.77
2022-08-09T06:56:14.639Z,74.64
2022-08-09T06:57:16.489Z,74.66
2022-08-09T06:58:40.571Z,74.48
2022-08-09T07:00:49.458Z,74.32
2022-08-09T07:01:02.072Z,74.48
2022-08-09T07:02:04.574Z,74.17
2022-08-09T07:03:06.958Z,74.10
2022-08-09T07:04:10.495Z,74.43
2022-08-09T07:05:21.657Z,74.03
2022-08-09T07:06:25.521Z,73.98
2022-08-09T07:08:01.008Z,73.90
2022-08-09T07:08:51.611Z,74.24
2022-08-09T07:10:14.149Z,74.45
2022-08-09T07:11:17.553Z,74.41
2022-08-09T07:12:40.797Z,74.10
2022-08-09T07:13:45.085Z,73.90
2022-08-09T07:16:38.544Z,74.42
2022-08-09T07:16:43.462Z,74.19
2022-08-09T07:17:52.810Z,74.54
2022-08-09T07:18:58.272Z,74.91
2022-08-09T07:20:00.087Z,74.78
2022-08-09T07:21:01.938Z,74.65
2022-08-09T07:22:04.124Z,73.98
2022-08-09T07:23:06.138Z,74.01
2022-08-09T07:24:21.163Z,73.05
2022-08-09T07:25:38.939Z,73.90
2022-08-09T07:26:44.720Z,74.10
2022-08-09T07:27:53.346Z,74.17
2022-08-09T07:29:08.967Z,74.32
2022-08-09T07:30:14.547Z,74.01
2022-08-09T07:31:16.826Z,74.21
2022-08-09T07:32:18.699Z,73.67
2022-08-09T07:33:24.880Z,73.60
2022-08-09T07:34:27.205Z,73.85
2022-08-09T07:35:29.069Z,73.48
2022-08-09T07:36:41.662Z,73.66
2022-08-09T07:37:49.342Z,73.27
2022-08-09T07:39:00.459Z,73.60
2022-08-09T07:40:03.192Z,73.46
2022-08-09T07:41:11.141Z,73.73
2022-08-09T07:42:14.078Z,72.61
2022-08-09T07:43:16.866Z,72.66
2022-08-09T07:44:18.990Z,72.98
2022-08-09T07:45:39.882Z,73.05
2022-08-09T07:46:43.121Z,73.96
2022-08-09T07:48:00.467Z,73.85
2022-08-09T07:49:06.116Z,72.52
2022-08-09T07:50:10.129Z,72.50
2022-08-09T07:52:05.420Z,72.78
2022-08-09T07:52:34.006Z,71.81
2022-08-09T07:54:04.238Z,72.24
2022-08-09T07:55:01.310Z,72.51
2022-08-09T07:56:27.184Z,72.59
2022-08-09T07:57:33.739Z,72.03
2022-08-09T07:58:37.806Z,72.89
2022-08-09T07:59:51.951Z,73.06
2022-08-09T08:01:06.632Z,72.13
2022-08-09T08:02:19.395Z,71.63
2022-08-09T08:03:22.051Z,71.85
2022-08-09T08:04:32.264Z,71.07
2022-08-09T08:05:54.077Z,72.28
2022-08-09T08:07:00.318Z,73.17
2022-08-09T08:09:00.758Z,73.61
2022-08-09T08:09:51.564Z,73.18
2022-08-09T08:11:15.354Z,72.97
2022-08-09T08:12:28.067Z,72.67
2022-08-09T08:13:38.214Z,72.02
2022-08-09T08:14:53.071Z,71.58
2022-08-09T08:15:54.862Z,71.99
2022-08-09T08:17:07.355Z,70.79
2022-08-09T08:18:09.787Z,71.73
2022-08-09T08:19:17.380Z,71.68
2022-08-09T08:20:28.494Z,70.43
2022-08-09T08:21:32.003Z,71.25
2022-08-09T08:22:34.261Z,71.80
2022-08-09T08:23:38.411Z,72.32
2022-08-09T08:24:47.199Z,71.93
2022-08-09T08:26:06.453Z,71.42
2022-08-09T08:27:16.995Z,71.42
2022-08-09T08:28:31.824Z,72.17
2022-08-09T08:29:39.250Z,71.67
2022-08-09T08:30:47.634Z,71.21
2022-08-09T08:32:03.248Z,71.54
2022-08-09T08:33:06.018Z,71.17
2022-08-09T08:34:14.110Z,70.90
2022-08-09T08:35:18.256Z,71.84
2022-08-09T08:36:28.511Z,71.80
2022-08-09T08:37:41.631Z,69.75
2022-08-09T08:38:54.045Z,68.51
2022-08-09T08:39:58.406Z,68.96
2022-08-09T08:41:06.146Z,69.99
2022-08-09T08:42:08.651Z,70.34
2022-08-09T08:43:13.781Z,71.86
2022-08-09T08:44:16.761Z,72.49
2022-08-09T08:45:53.579Z,73.03
2022-08-09T08:47:12.373Z,74.18
2022-08-09T08:48:19.224Z,73.88
2022-08-09T08:49:22.638Z,73.46
2022-08-09T08:50:40.175Z,71.95
2022-08-09T08:52:00.205Z,70.76
2022-08-09T08:53:04.319Z,68.65
2022-08-09T08:54:10.279Z,68.40
2022-08-09T08:55:23.361Z,68.86
2022-08-09T08:56:28.061Z,69.97
2022-08-09T08:57:30.240Z,69.91
2022-08-09T08:58:37.752Z,68.58
2022-08-09T08:59:46.493Z,69.02
2022-08-09T09:00:54.311Z,68.41
2022-08-09T09:01:59.773Z,67.66
2022-08-09T09:03:11.634Z,67.13
2022-08-09T09:04:14.840Z,67.50
2022-08-09T09:05:20.246Z,69.26
2022-08-09T09:06:36.716Z,69.37
2022-08-09T09:07:44.717Z,69.59
2022-08-09T09:08:52.336Z,69.81
2022-08-09T09:10:02.881Z,69.71
2022-08-09T09:11:07.517Z,68.41
2022-08-09T09:12:16.700Z,68.02
2022-08-09T09:13:19.590Z,68.20
2022-08-09T09:14:26.752Z,68.71
2022-08-09T09:15:29.006Z,66.82
2022-08-09T09:16:34.408Z,66.63
2022-08-09T09:17:49.417Z,67.71
2022-08-09T09:19:10.743Z,66.69
2022-08-09T09:20:17.449Z,66.28
2022-08-09T09:21:25.968Z,66.55
2022-08-09T09:22:29.668Z,67.54
2022-08-09T09:23:49.690Z,67.78
2022-08-09T09:26:01.002Z,68.79
2022-08-09T09:26:23.307Z,69.74
2022-08-09T09:28:05.727Z,69.42
2022-08-09T09:29:04.192Z,68.41
2022-08-09T09:30:26.261Z,63.21
2022-08-09T09:32:07.078Z,63.78
2022-08-09T09:33:15.652Z,61.35
2022-08-09T09:34:19.401Z,63.94
2022-08-09T09:35:21.247Z,64.17
2022-08-09T09:36:23.022Z,65.50
2022-08-09T09:37:31.996Z,64.54
2022-08-09T09:38:41.893Z,64.27
2022-08-09T09:39:55.568Z,62.47
2022-08-09T09:40:59.107Z,62.64
2022-08-09T09:42:08.932Z,62.07
2022-08-09T09:43:20.218Z,61.00
2022-08-09T09:44:31.808Z,60.69
2022-08-09T09:47:16.711Z,59.64
2022-08-09T09:48:23.217Z,58.36
2022-08-09T09:49:50.271Z,55.68
2022-08-09T09:50:51.497Z,59.58
2022-08-09T09:52:02.294Z,58.57
2022-08-09T09:53:04.291Z,59.33
2022-08-09T09:54:20.657Z,57.91
2022-08-09T09:55:29.179Z,57.47
2022-08-09T09:56:36.155Z,57.64
2022-08-09T09:58:18.235Z,56.11
2022-08-09T09:59:26.454Z,57.50
2022-08-09T10:00:43.475Z,55.97
2022-08-09T10:02:00.163Z,54.37
2022-08-09T10:03:11.605Z,53.52
2022-08-09T10:04:22.959Z,54.89
2022-08-09T10:06:03.611Z,54.36
2022-08-09T10:06:54.797Z,52.66
2022-08-09T10:08:25.936Z,55.67
2022-08-09T10:09:25.802Z,56.42
2022-08-09T10:10:31.502Z,56.39
2022-08-09T10:12:04.475Z,54.25
2022-08-09T10:12:56.191Z,56.01
2022-08-09T10:13:58.276Z,53.03
2022-08-09T10:15:04.319Z,54.27
2022-08-09T10:16:55.108Z,53.39
2022-08-09T10:17:50.181Z,53.04
2022-08-09T10:18:54.626Z,54.82
2022-08-09T10:19:57.067Z,53.16
2022-08-09T10:21:08.270Z,51.75
2022-08-09T10:22:10.112Z,52.05
2022-08-09T10:23:20.379Z,52.48
2022-08-09T10:24:25.536Z,53.43
2022-08-09T10:26:07.541Z,51.21
2022-08-09T10:26:59.954Z,51.37
2022-08-09T10:28:02.763Z,51.98
2022-08-09T10:29:32.781Z,50.42
2022-08-09T10:32:13.640Z,52.05
2022-08-09T10:33:29.534Z,53.04
2022-08-09T10:34:36.006Z,52.48
2022-08-09T10:35:38.567Z,52.61
2022-08-09T10:36:42.239Z,50.00
2022-08-09T10:37:44.687Z,50.84
2022-08-09T10:38:57.132Z,49.89
2022-08-09T10:40:02.211Z,51.15
2022-08-09T10:41:04.695Z,48.78
2022-08-09T10:42:06.896Z,50.07
2022-08-09T10:43:13.065Z,50.01
2022-08-09T10:44:18.067Z,49.13
2022-08-09T10:45:21.732Z,50.50
2022-08-09T10:46:52.345Z,50.70
2022-08-09T10:48:32.146Z,47.72
2022-08-09T10:49:51.817Z,47.13
2022-08-09T10:51:13.758Z,47.36
2022-08-09T10:52:30.784Z,47.03
2022-08-09T10:53:38.063Z,49.32
2022-08-09T10:54:41.414Z,48.04
2022-08-09T10:55:55.176Z,48.63
2022-08-09T10:57:19.319Z,48.70
2022-08-09T10:58:33.537Z,48.22
2022-08-09T10:59:55.528Z,47.42
2022-08-09T11:03:02.999Z,49.23
2022-08-09T11:03:17.972Z,48.74
2022-08-09T11:04:29.852Z,48.82
2022-08-09T11:05:31.281Z,46.09
2022-08-09T11:06:37.158Z,48.35
2022-08-09T11:07:55.769Z,48.80
2022-08-09T11:09:16.106Z,47.19
2022-08-09T11:10:37.762Z,47.20
2022-08-09T11:11:55.242Z,45.99
2022-08-09T11:13:13.786Z,45.56
2022-08-09T11:14:38.196Z,45.93
2022-08-09T11:15:50.738Z,46.35
2022-08-09T11:16:53.057Z,46.97
2022-08-09T11:18:03.722Z,45.07
2022-08-09T11:19:08.035Z,44.82
2022-08-09T11:20:22.267Z,45.35
2022-08-09T11:22:05.559Z,42.16
2022-08-09T11:23:23.846Z,45.99
2022-08-09T11:24:51.767Z,46.61
2022-08-09T11:25:54.680Z,45.18
2022-08-09T11:26:56.721Z,45.02
2022-08-09T11:28:08.394Z,45.71
2022-08-09T11:30:06.201Z,47.18
2022-08-09T11:31:43.528Z,44.61
2022-08-09T11:32:51.804Z,46.45
2022-08-09T11:33:58.029Z,42.07
2022-08-09T11:35:01.463Z,44.36
2022-08-09T11:36:03.891Z,44.95
2022-08-09T11:37:08.998Z,43.85
2022-08-09T11:38:22.560Z,42.08
2022-08-09T11:39:54.905Z,42.34
2022-08-09T11:41:02.151Z,43.19
2022-08-09T11:42:14.677Z,42.52
2022-08-09T11:43:18.218Z,43.99
2022-08-09T11:44:20.092Z,43.36
2022-08-09T11:45:23.059Z,43.25
2022-08-09T11:46:48.060Z,41.56
2022-08-09T11:47:53.170Z,42.61
2022-08-09T11:48:57.818Z,40.96
2022-08-09T11:50:54.981Z,39.94
2022-08-09T11:52:56.760Z,42.64
2022-08-09T11:53:28.055Z,40.52
2022-08-09T11:54:30.163Z,39.33
2022-08-09T11:55:52.465Z,42.12
2022-08-09T11:57:15.723Z,43.95
2022-08-09T11:58:32.339Z,42.46
2022-08-09T11:59:35.430Z,40.73
2022-08-09T12:00:48.497Z,42.13
2022-08-09T12:02:34.788Z,41.42
2022-08-09T12:03:50.423Z,42.11
2022-08-09T12:04:39.208Z,39.62
2022-08-09T12:05:42.449Z,40.84
2022-08-09T12:06:55.649Z,41.71
2022-08-09T12:07:58.834Z,41.74
2022-08-09T12:09:01.919Z,39.90
2022-08-09T12:10:03.886Z,41.13
2022-08-09T12:11:05.803Z,39.42
2022-08-09T12:12:29.453Z,41.39
2022-08-09T12:14:10.614Z,40.95
2022-08-09T12:15:07.838Z,40.20
2022-08-09T12:16:37.463Z,38.14
2022-08-09T12:17:43.239Z,38.94
2022-08-09T12:18:53.686Z,38.61
2022-08-09T12:19:59.899Z,38.89
2022-08-09T12:21:03.308Z,40.34
2022-08-09T12:22:05.564Z,41.25
2022-08-09T12:23:07.487Z,38.42
2022-08-09T12:24:10.578Z,37.46
2022-08-09T12:25:16.283Z,37.63
2022-08-09T12:26:25.660Z,37.69
2022-08-09T12:29:10.554Z,39.92
2022-08-09T12:29:13.736Z,37.33
2022-08-09T12:30:35.233Z,37.09
2022-08-09T12:32:01.907Z,35.65
2022-08-09T12:33:04.620Z,37.88
2022-08-09T12:34:06.448Z,40.38
2022-08-09T12:35:10.852Z,39.25
2022-08-09T12:36:31.187Z,40.75
2022-08-09T12:37:37.855Z,37.77
2022-08-09T12:38:46.280Z,39.57
2022-08-09T12:40:11.079Z,39.87
2022-08-09T12:41:13.483Z,39.96
2022-08-09T12:42:16.649Z,39.86
2022-08-09T12:43:23.365Z,37.06
2022-08-09T12:44:46.365Z,37.72
2022-08-09T12:45:59.742Z,39.48
2022-08-09T12:47:02.470Z,38.29
2022-08-09T12:48:20.170Z,37.10
2022-08-09T12:49:29.565Z,39.52
2022-08-09T12:50:32.321Z,36.95
2022-08-09T12:52:01.159Z,38.06
2022-08-09T12:53:08.713Z,39.39
2022-08-09T12:54:11.707Z,37.90
2022-08-09T12:56:15.185Z,35.26
2022-08-09T12:56:54.109Z,37.11
2022-08-09T12:57:56.411Z,35.57
2022-08-09T12:59:12.076Z,38.48
2022-08-09T13:00:26.502Z,37.43
2022-08-09T13:01:28.864Z,35.25
2022-08-09T13:02:45.696Z,37.66
2022-08-09T13:03:58.889Z,37.84
2022-08-09T13:05:02.508Z,38.36
2022-08-09T13:06:14.363Z,33.98
2022-08-09T13:07:20.016Z,37.02
2022-08-09T13:08:40.442Z,37.08
2022-08-09T13:09:55.591Z,35.57
2022-08-09T13:11:13.204Z,36.56
2022-08-09T13:12:24.790Z,37.32
2022-08-09T13:13:37.996Z,37.32
2022-08-09T13:14:54.086Z,35.79
2022-08-09T13:15:56.975Z,36.26
2022-08-09T13:17:03.134Z,36.49
2022-08-09T13:18:09.542Z,37.65
2022-08-09T13:19:13.084Z,34.85
2022-08-09T13:20:23.178Z,37.13
2022-08-09T13:22:37.624Z,36.18
2022-08-09T13:23:05.564Z,35.07
2022-08-09T13:24:53.216Z,35.70
2022-08-09T13:25:55.003Z,33.57
2022-08-09T13:26:58.739Z,36.81
2022-08-09T13:28:08.839Z,37.66
2022-08-09T13:29:18.415Z,37.63
2022-08-09T13:32:09.724Z,35.46
2022-08-09T13:32:17.101Z,34.51
2022-08-09T13:33:23.867Z,35.12
2022-08-09T13:34:26.111Z,34.22
2022-08-09T13:35:34.650Z,36.10
2022-08-09T13:36:56.460Z,37.04
2022-08-09T13:37:58.337Z,36.38
2022-08-09T13:39:30.980Z,36.86
2022-08-09T13:41:54.354Z,34.64
2022-08-09T13:41:56.388Z,35.32
2022-08-09T13:43:05.047Z,34.98
2022-08-09T13:44:07.275Z,35.83
2022-08-09T13:45:12.387Z,36.36
2022-08-09T13:47:16.671Z,35.84
2022-08-09T13:47:49.034Z,35.67
2022-08-09T13:48:52.464Z,35.39
2022-08-09T13:49:58.109Z,35.55
2022-08-09T13:51:03.692Z,36.05
2022-08-09T13:52:09.195Z,34.55
2022-08-09T13:53:11.547Z,35.73
2022-08-09T13:54:13.832Z,35.63
2022-08-09T13:55:17.601Z,34.06
2022-08-09T13:56:19.774Z,34.13
2022-08-09T13:57:37.339Z,35.01
2022-08-09T13:58:41.991Z,34.39
2022-08-09T13:59:43.730Z,34.05
2022-08-09T14:00:50.456Z,35.35
2022-08-09T14:01:56.407Z,34.19
2022-08-09T14:04:01.802Z,35.77
2022-08-09T14:04:24.987Z,33.40
2022-08-09T14:05:56.974Z,32.08
2022-08-09T14:06:54.206Z,35.44
2022-08-09T14:08:01.534Z,35.92
2022-08-09T14:09:06.655Z,35.77
2022-08-09T14:10:17.302Z,32.96
2022-08-09T14:11:32.356Z,35.94
2022-08-09T14:12:48.826Z,34.77
2022-08-09T14:14:23.155Z,34.65
2022-08-09T14:16:06.373Z,33.68
2022-08-09T14:16:34.596Z,34.19
2022-08-09T14:18:18.663Z,35.30
2022-08-09T14:18:59.498Z,34.65
2022-08-09T14:20:01.975Z,35.65
2022-08-09T14:21:06.091Z,34.03
2022-08-09T14:22:07.861Z,33.95
2022-08-09T14:23:10.973Z,33.60
2022-08-09T14:24:32.637Z,33.11
2022-08-09T14:25:42.712Z,35.75
2022-08-09T14:26:46.307Z,33.30
2022-08-09T14:27:58.646Z,34.13
2022-08-09T14:29:02.673Z,35.30
2022-08-09T14:30:36.597Z,32.54
2022-08-09T14:31:35.829Z,30.54
2022-08-09T14:32:48.916Z,32.45
2022-08-09T14:33:52.120Z,34.08
2022-08-09T14:34:56.880Z,33.34
2022-08-09T14:35:58.778Z,35.96
2022-08-09T14:37:20.638Z,31.89
2022-08-09T14:38:30.072Z,33.38
2022-08-09T14:39:39.831Z,34.63
2022-08-09T14:41:04.181Z,33.97
2022-08-09T14:42:10.361Z,33.37
2022-08-09T14:43:18.417Z,35.13
2022-08-09T14:44:32.481Z,33.92
2022-08-09T14:46:57.105Z,34.09
2022-08-09T14:47:31.265Z,34.86
2022-08-09T14:48:26.817Z,34.36
2022-08-09T14:49:28.977Z,31.05
2022-08-09T14:50:37.290Z,34.84
2022-08-09T14:51:41.965Z,32.62
2022-08-09T14:52:50.036Z,33.88
2022-08-09T14:53:52.830Z,35.27
2022-08-09T14:54:54.587Z,33.14
2022-08-09T14:55:56.301Z,34.35
2022-08-09T14:56:59.243Z,30.38
2022-08-09T14:58:02.830Z,33.34
2022-08-09T14:59:05.129Z,31.82
2022-08-09T15:00:11.006Z,32.43
2022-08-09T15:01:13.902Z,34.42
2022-08-09T15:02:17.974Z,31.40
2022-08-09T15:03:22.331Z,30.73
2022-08-09T15:04:24.194Z,33.58